Bond, Illinois
Current Conditions -  °F | °C
As of 2:53 PM on Friday 24 Oct 2014 (Local Time) from KLWV Reporting Station
Few Clouds Few Clouds  
Wind Chill: 21°   Ceiling: Unl
Heat Index: 21°   Visibility: 10mi
Dew Point: 12°   Wind: 7mph
Humidity: 55%   Direction: 210°SSW
Pressure: 30.05"   Gusts: NA
Location:  38.7501°N, 87.6141°W
Report Text: KLWV 241953Z AUTO 21006KT 10SM FEW041 21/12 A3005 RMK AO2 SLP173 T02110117
Loading
Personal Weather Stations






























Interactive Weather Map
Tropical Storm Tracking
New forecast layout! Learn more

10-Day Weather Forecast

Advertisements
Track Severe Weather on mobile